Time;durP1;ratioP1;P1;durP2;ratioP2;P2;SDS_P1;SDS_P2;PMS_P1;PMS_P2;Temp;Humidity;BMP_temperature;BMP_pressure;BME280_temperature;BME280_humidity;BME280_pressure;Samples;Min_cycle;Max_cycle;Signal;HPM_P1;HPM_P2
2022/06/28 00:01:57;;;;;;;2.72;2.53;;;21.20;99.90;;;;;;4952232;28;20047;-71
2022/06/28 00:04:23;;;;;;;4.25;2.63;;;21.20;99.90;;;;;;4937230;28;20039;-70
2022/06/28 00:06:49;;;;;;;2.60;2.40;;;21.20;99.90;;;;;;4935294;28;20039;-70
2022/06/28 00:09:15;;;;;;;2.97;2.47;;;21.10;99.90;;;;;;4953987;28;20062;-70
2022/06/28 00:11:42;;;;;;;3.25;2.42;;;21.10;99.90;;;;;;4955512;28;20042;-70
2022/06/28 00:16:54;;;;;;;5.93;2.70;;;21.00;99.90;;;;;;4950739;28;20073;-70
2022/06/28 00:19:20;;;;;;;4.30;3.42;;;20.80;99.90;;;;;;4936500;28;20512;-70
2022/06/28 00:21:47;;;;;;;4.25;2.53;;;20.80;99.90;;;;;;4954096;28;20055;-70
2022/06/28 00:24:13;;;;;;;2.85;2.63;;;20.80;99.90;;;;;;4953624;28;20059;-67
2022/06/28 00:26:39;;;;;;;4.65;2.42;;;20.70;99.90;;;;;;4946276;28;20716;-68
2022/06/28 00:29:04;;;;;;;6.20;2.95;;;20.70;99.90;;;;;;4945695;28;20053;-68
2022/06/28 00:31:30;;;;;;;2.65;2.45;;;20.70;99.90;;;;;;4946898;28;20365;-68
2022/06/28 00:33:56;;;;;;;3.67;2.53;;;20.70;99.90;;;;;;4937997;28;20496;-68
2022/06/28 00:36:21;;;;;;;2.78;2.50;;;20.60;99.90;;;;;;4947009;28;20044;-68
2022/06/28 00:38:47;;;;;;;5.60;2.67;;;20.50;99.90;;;;;;4953870;28;20045;-68
2022/06/28 00:41:13;;;;;;;8.60;2.60;;;20.50;99.90;;;;;;4953624;28;20043;-68
2022/06/28 00:43:39;;;;;;;2.72;2.45;;;20.50;99.90;;;;;;4953326;28;20130;-68
2022/06/28 00:46:07;;;;;;;5.30;2.58;;;20.50;99.90;;;;;;4956704;28;20027;-68
2022/06/28 00:48:34;;;;;;;3.72;2.60;;;20.50;99.90;;;;;;4951319;28;20045;-68
2022/06/28 00:51:00;;;;;;;4.57;2.15;;;20.40;99.90;;;;;;4955895;28;20027;-68
2022/06/28 00:53:26;;;;;;;4.70;2.35;;;20.40;99.90;;;;;;4947830;28;20507;-68
2022/06/28 00:55:52;;;;;;;6.63;2.30;;;20.30;99.90;;;;;;4955411;28;20035;-68
2022/06/28 00:58:17;;;;;;;2.70;2.50;;;20.30;99.90;;;;;;4948402;28;20121;-68
2022/06/28 01:00:48;;;;;;;3.38;2.50;;;20.30;99.90;;;;;;4955035;28;20135;-68
2022/06/28 01:03:20;;;;;;;3.08;2.40;;;20.20;99.90;;;;;;4951260;28;20043;-68
2022/06/28 01:05:46;;;;;;;3.22;2.90;;;20.20;99.90;;;;;;4959724;28;20392;-68
2022/06/28 01:08:12;;;;;;;2.67;2.47;;;20.20;99.90;;;;;;4954764;28;20109;-68
2022/06/28 01:10:39;;;;;;;3.33;2.55;;;20.10;99.90;;;;;;4954008;28;20486;-68
2022/06/28 01:13:06;;;;;;;4.78;2.33;;;20.10;99.90;;;;;;4956215;28;20030;-70
2022/06/28 01:15:32;;;;;;;5.00;2.92;;;20.20;99.90;;;;;;4957247;28;20561;-68
2022/06/28 01:18:03;;;;;;;3.17;2.72;;;20.10;99.90;;;;;;4953131;28;20468;-68
2022/06/28 01:20:29;;;;;;;2.83;2.50;;;20.00;99.90;;;;;;4958568;28;20757;-70
2022/06/28 01:22:56;;;;;;;4.95;2.53;;;20.00;99.90;;;;;;4956148;28;20094;-70
2022/06/28 01:25:23;;;;;;;6.90;2.80;;;19.90;99.90;;;;;;4936418;28;21084;-70
2022/06/28 01:27:50;;;;;;;6.72;2.70;;;19.90;99.90;;;;;;4955925;28;20045;-70
2022/06/28 01:30:16;;;;;;;6.85;2.65;;;19.90;99.90;;;;;;4957186;28;20639;-70
2022/06/28 01:32:42;;;;;;;9.18;2.38;;;19.80;99.90;;;;;;4953821;28;20043;-70
2022/06/28 01:35:09;;;;;;;5.90;2.85;;;19.80;99.90;;;;;;4953206;28;20620;-70
2022/06/28 01:37:35;;;;;;;4.57;2.60;;;19.70;99.90;;;;;;4954758;28;20046;-70
2022/06/28 01:40:02;;;;;;;4.32;2.30;;;19.60;99.90;;;;;;4956919;28;20137;-70
2022/06/28 01:42:28;;;;;;;3.88;2.30;;;19.60;99.90;;;;;;4949969;28;20481;-70
2022/06/28 01:44:56;;;;;;;8.02;2.80;;;19.80;99.90;;;;;;4956003;28;20049;-71
2022/06/28 01:47:24;;;;;;;4.60;2.63;;;19.80;99.90;;;;;;4955414;28;20027;-70
2022/06/28 01:49:50;;;;;;;5.50;2.60;;;19.70;99.90;;;;;;4957932;28;20045;-70
2022/06/28 01:52:16;;;;;;;2.58;2.33;;;19.70;99.90;;;;;;4957688;28;20074;-70
2022/06/28 01:54:42;;;;;;;5.68;2.63;;;19.60;99.90;;;;;;4955354;28;20185;-71
2022/06/28 01:57:09;;;;;;;4.30;2.78;;;19.60;99.90;;;;;;4939408;28;20109;-70
2022/06/28 01:59:36;;;;;;;5.80;2.65;;;19.50;99.90;;;;;;4953449;28;20665;-68
2022/06/28 02:02:01;;;;;;;7.85;2.72;;;19.40;99.90;;;;;;4952774;28;20035;-68
2022/06/28 02:04:29;;;;;;;6.50;2.83;;;19.40;99.90;;;;;;4948653;28;20046;-68
2022/06/28 02:06:55;;;;;;;6.03;2.80;;;19.40;99.90;;;;;;4950769;28;20047;-69
2022/06/28 02:09:21;;;;;;;10.40;2.75;;;19.40;99.90;;;;;;4952602;28;20043;-68
2022/06/28 02:11:47;;;;;;;6.78;2.53;;;19.40;99.90;;;;;;4953712;28;20138;-68
2022/06/28 02:14:12;;;;;;;4.85;2.72;;;19.40;99.90;;;;;;4935403;28;20054;-69
2022/06/28 02:16:38;;;;;;;3.70;2.30;;;19.40;99.90;;;;;;4951156;28;20050;-68
2022/06/28 02:19:04;;;;;;;2.90;2.60;;;19.40;99.90;;;;;;4951424;28;20042;-70
2022/06/28 02:21:41;;;;;;;3.92;2.22;;;19.40;99.90;;;;;;4948574;28;20042;-70
2022/06/28 02:24:09;;;;;;;4.15;2.28;;;19.50;99.90;;;;;;4950977;28;20396;-70
2022/06/28 02:26:35;;;;;;;3.35;2.92;;;19.50;99.90;;;;;;4952633;28;20186;-70
2022/06/28 02:29:03;;;;;;;2.70;2.45;;;19.50;99.90;;;;;;4954444;28;20043;-70
2022/06/28 02:31:29;;;;;;;7.65;2.60;;;19.50;99.90;;;;;;4952420;28;20114;-70
2022/06/28 02:33:56;;;;;;;12.85;2.55;;;19.50;99.90;;;;;;4949528;28;20043;-69
2022/06/28 02:40:21;;;;;;;3.75;2.55;;;19.30;99.90;;;;;;4946235;28;20684;-68
2022/06/28 02:41:56;;;;;;;4.68;2.55;;;19.20;99.90;;;;;;4954466;28;20082;-68
2022/06/28 02:44:21;;;;;;;2.75;2.22;;;19.20;99.90;;;;;;4949311;28;20171;-68
2022/06/28 02:46:48;;;;;;;4.07;2.22;;;19.30;99.90;;;;;;4951708;28;20054;-68
2022/06/28 02:49:15;;;;;;;2.75;2.55;;;19.40;99.90;;;;;;4950072;28;20042;-68
2022/06/28 02:51:41;;;;;;;3.95;2.65;;;19.40;99.90;;;;;;4950480;28;20050;-68
2022/06/28 02:54:07;;;;;;;2.40;2.20;;;19.40;99.90;;;;;;4943230;28;20055;-68
2022/06/28 02:56:34;;;;;;;5.85;2.45;;;19.40;99.90;;;;;;4947837;28;20051;-68
2022/06/28 02:59:00;;;;;;;5.35;2.45;;;19.40;99.90;;;;;;4949177;28;20043;-68
2022/06/28 03:01:25;;;;;;;4.80;2.70;;;19.30;99.90;;;;;;4949677;28;20119;-68
2022/06/28 03:03:51;;;;;;;4.95;2.63;;;19.30;99.90;;;;;;4951153;28;22108;-68
2022/06/28 03:06:17;;;;;;;6.55;2.72;;;19.30;99.90;;;;;;4959261;28;20337;-68
2022/06/28 03:08:42;;;;;;;3.67;2.42;;;19.30;99.90;;;;;;4956645;28;20602;-68
2022/06/28 03:11:08;;;;;;;2.72;2.53;;;19.30;99.90;;;;;;4956364;28;20038;-68
2022/06/28 03:13:33;;;;;;;3.47;2.78;;;19.30;99.90;;;;;;4954264;28;20047;-68
2022/06/28 03:15:59;;;;;;;3.70;2.80;;;19.30;99.90;;;;;;4956107;28;20036;-70
2022/06/28 03:18:25;;;;;;;4.40;2.42;;;19.30;99.90;;;;;;4957501;28;20134;-70
2022/06/28 03:20:50;;;;;;;3.95;2.40;;;19.30;99.90;;;;;;4956282;28;20093;-70
2022/06/28 03:23:16;;;;;;;4.03;3.03;;;19.30;99.90;;;;;;4951506;28;20173;-70
2022/06/28 03:25:41;;;;;;;6.45;2.38;;;19.40;99.90;;;;;;4953361;28;20113;-70
2022/06/28 03:28:07;;;;;;;2.78;2.45;;;19.50;99.90;;;;;;4956240;28;20039;-70
2022/06/28 03:30:33;;;;;;;5.00;2.90;;;19.50;99.90;;;;;;4954617;28;20487;-70
2022/06/28 03:32:59;;;;;;;6.68;2.40;;;19.40;99.90;;;;;;4952572;28;20027;-70
2022/06/28 03:35:25;;;;;;;5.38;3.00;;;19.40;99.90;;;;;;4955480;28;20042;-68
2022/06/28 03:37:51;;;;;;;5.47;2.80;;;19.50;99.90;;;;;;4945922;28;20055;-68
2022/06/28 03:40:17;;;;;;;3.28;2.55;;;19.50;99.90;;;;;;4948231;28;20058;-68
2022/06/28 03:42:42;;;;;;;4.53;2.78;;;19.60;99.90;;;;;;4955777;28;20157;-68
2022/06/28 03:45:09;;;;;;;4.90;2.83;;;19.60;99.90;;;;;;4959148;28;20043;-68
2022/06/28 03:47:35;;;;;;;5.32;2.33;;;19.70;99.90;;;;;;4956162;28;20052;-68
2022/06/28 03:50:01;;;;;;;14.07;2.70;;;19.80;99.90;;;;;;4955721;28;20039;-69
2022/06/28 03:52:29;;;;;;;6.40;2.67;;;19.90;99.90;;;;;;4949943;28;20037;-70
2022/06/28 03:54:58;;;;;;;3.28;2.83;;;19.90;99.90;;;;;;4949163;28;20042;-70
2022/06/28 03:57:25;;;;;;;5.97;2.65;;;19.90;99.90;;;;;;4953105;28;20039;-70
2022/06/28 03:59:51;;;;;;;4.45;3.10;;;19.90;99.90;;;;;;4955854;28;20058;-70
2022/06/28 04:02:17;;;;;;;3.72;3.28;;;20.10;99.90;;;;;;4939232;28;20047;-69
2022/06/28 04:04:43;;;;;;;5.88;2.60;;;20.10;99.90;;;;;;4951859;28;20043;-69
2022/06/28 04:07:08;;;;;;;7.72;2.60;;;20.30;99.90;;;;;;4950473;28;20035;-70
2022/06/28 04:09:34;;;;;;;8.18;2.60;;;20.40;99.90;;;;;;4955340;28;20054;-77
2022/06/28 04:12:00;;;;;;;4.60;2.80;;;20.60;99.90;;;;;;4956850;28;20130;-68
2022/06/28 04:14:25;;;;;;;8.50;2.85;;;20.60;99.90;;;;;;4950198;28;20039;-68
2022/06/28 04:16:51;;;;;;;9.30;3.10;;;20.80;99.90;;;;;;4959527;28;20559;-68
2022/06/28 04:19:16;;;;;;;9.25;2.90;;;20.90;99.90;;;;;;4951430;28;20051;-68
2022/06/28 04:21:42;;;;;;;5.18;3.08;;;21.00;99.90;;;;;;4954185;28;20042;-68
2022/06/28 04:24:08;;;;;;;3.78;2.70;;;21.00;99.90;;;;;;4948322;28;20600;-68
2022/06/28 04:26:34;;;;;;;7.18;2.92;;;21.10;99.90;;;;;;4956118;28;20070;-67
2022/06/28 04:29:00;;;;;;;5.10;3.10;;;21.10;99.90;;;;;;4953616;28;20113;-67
2022/06/28 04:31:26;;;;;;;3.03;2.58;;;21.20;99.90;;;;;;4949867;28;20046;-66
2022/06/28 04:33:51;;;;;;;4.53;2.47;;;21.20;99.90;;;;;;4947390;28;20086;-66
2022/06/28 04:36:17;;;;;;;5.40;2.55;;;21.30;99.90;;;;;;4943383;28;20043;-66
2022/06/28 04:38:43;;;;;;;6.60;2.80;;;21.40;99.90;;;;;;4956286;28;20027;-66
2022/06/28 04:41:08;;;;;;;4.45;2.78;;;21.50;99.90;;;;;;4953580;28;20035;-66
2022/06/28 04:43:34;;;;;;;16.20;2.80;;;21.70;99.90;;;;;;4957952;28;20555;-66
2022/06/28 04:48:44;;;;;;;8.43;2.50;;;22.00;99.90;;;;;;4956231;28;20034;-67
2022/06/28 04:51:13;;;;;;;6.63;2.60;;;22.20;99.90;;;;;;4951344;28;20034;-70
2022/06/28 04:53:41;;;;;;;4.97;2.45;;;22.30;99.90;;;;;;4948152;28;20117;-70
2022/06/28 04:56:08;;;;;;;4.07;2.55;;;22.40;99.90;;;;;;4954679;28;20034;-70
2022/06/28 04:58:33;;;;;;;7.20;3.47;;;22.50;99.90;;;;;;4952798;28;20050;-70
2022/06/28 05:00:59;;;;;;;3.13;2.20;;;22.60;99.90;;;;;;4955346;28;20055;-70
2022/06/28 05:03:25;;;;;;;3.80;2.42;;;22.70;99.90;;;;;;4948853;28;20039;-69
2022/06/28 05:05:50;;;;;;;8.52;2.50;;;22.80;99.90;;;;;;4934251;28;20058;-70
2022/06/28 05:08:16;;;;;;;7.82;3.03;;;22.90;99.90;;;;;;4941061;28;20042;-69
2022/06/28 05:10:41;;;;;;;9.93;4.40;;;22.90;99.90;;;;;;4938246;28;20053;-67
2022/06/28 05:13:07;;;;;;;11.50;4.43;;;22.90;99.90;;;;;;4951838;28;20119;-67
2022/06/28 05:15:33;;;;;;;11.95;4.43;;;22.80;99.90;;;;;;4949632;28;20391;-65
2022/06/28 05:17:58;;;;;;;8.05;3.15;;;22.70;99.90;;;;;;4941421;28;20046;-66
2022/06/28 05:23:08;;;;;;;10.57;3.92;;;22.60;99.90;;;;;;5049273;27;20561;-65
2022/06/28 05:25:34;;;;;;;3.08;2.60;;;22.60;99.90;;;;;;5061122;28;20461;-72
2022/06/28 05:28:00;;;;;;;5.65;3.17;;;22.50;99.90;;;;;;5059450;28;20422;-66
2022/06/28 05:30:25;;;;;;;5.82;2.38;;;22.40;99.90;;;;;;5067899;28;20111;-65
2022/06/28 05:32:51;;;;;;;3.25;2.05;;;22.40;99.90;;;;;;5074797;28;20024;-65
2022/06/28 05:35:16;;;;;;;4.75;1.92;;;22.30;99.90;;;;;;5075217;28;20093;-63
2022/06/28 05:37:42;;;;;;;4.25;2.20;;;22.10;99.90;;;;;;5072233;28;20056;-64
2022/06/28 05:40:09;;;;;;;2.95;1.98;;;22.10;99.90;;;;;;5064551;28;20033;-65
2022/06/28 05:42:34;;;;;;;4.20;2.30;;;22.00;99.90;;;;;;5066687;28;20086;-65
2022/06/28 05:45:00;;;;;;;4.50;2.28;;;22.00;99.90;;;;;;5073293;28;20040;-65
2022/06/28 05:47:25;;;;;;;3.05;2.17;;;22.00;99.90;;;;;;5074894;28;20028;-70
2022/06/28 05:49:51;;;;;;;2.90;2.10;;;22.00;99.90;;;;;;5072309;28;20031;-70
2022/06/28 05:52:17;;;;;;;4.40;2.63;;;22.00;99.90;;;;;;5072422;28;20033;-71
2022/06/28 05:54:42;;;;;;;9.30;2.92;;;22.00;99.90;;;;;;5069070;28;20039;-73
2022/06/28 05:57:08;;;;;;;3.17;2.25;;;22.00;99.90;;;;;;5070788;28;20396;-72
2022/06/28 05:59:34;;;;;;;5.07;3.33;;;22.10;99.90;;;;;;5070696;28;20024;-73
2022/06/28 06:01:59;;;;;;;4.88;2.80;;;22.20;99.90;;;;;;5072160;28;20053;-72
2022/06/28 06:04:25;;;;;;;2.88;2.67;;;22.20;99.90;;;;;;5070139;28;20028;-72
2022/06/28 06:06:51;;;;;;;2.90;2.58;;;22.10;99.90;;;;;;5070513;28;20036;-65
2022/06/28 06:09:17;;;;;;;4.05;2.38;;;22.10;99.90;;;;;;5070559;28;20450;-65
2022/06/28 06:11:44;;;;;;;4.00;2.67;;;22.10;99.90;;;;;;5075084;28;20105;-65
2022/06/28 06:14:10;;;;;;;6.82;2.85;;;22.20;99.90;;;;;;5064176;28;20050;-65
2022/06/28 06:16:36;;;;;;;8.27;3.40;;;22.20;99.90;;;;;;5068543;28;20046;-70
2022/06/28 06:19:02;;;;;;;3.92;3.40;;;22.20;99.90;;;;;;5072292;28;20032;-65
2022/06/28 06:21:28;;;;;;;6.00;3.30;;;22.20;99.90;;;;;;5071533;28;20040;-65
2022/06/28 06:23:53;;;;;;;4.13;3.40;;;22.10;99.90;;;;;;5056508;28;20051;-66
2022/06/28 06:26:19;;;;;;;5.63;3.30;;;22.00;99.90;;;;;;5066138;28;20031;-70
2022/06/28 06:28:45;;;;;;;14.50;3.22;;;21.80;99.90;;;;;;5066321;28;20640;-70
2022/06/28 06:31:12;;;;;;;4.72;3.28;;;21.90;99.90;;;;;;5065916;28;20039;-70
2022/06/28 06:33:38;;;;;;;3.40;3.10;;;21.90;99.90;;;;;;5050993;28;20095;-69
2022/06/28 06:36:04;;;;;;;4.60;3.05;;;22.00;99.90;;;;;;5048861;28;20025;-69
2022/06/28 06:38:30;;;;;;;6.72;3.60;;;21.90;99.90;;;;;;5051491;28;20097;-70
2022/06/28 06:40:58;;;;;;;5.03;3.00;;;22.00;99.90;;;;;;5069009;28;20041;-69
2022/06/28 06:43:26;;;;;;;3.53;2.70;;;22.00;99.90;;;;;;5052631;28;24109;-69
2022/06/28 06:45:51;;;;;;;5.43;2.50;;;22.00;99.90;;;;;;5074502;28;20054;-69
2022/06/28 06:48:17;;;;;;;2.67;2.47;;;22.00;99.90;;;;;;5052829;28;20036;-69
2022/06/28 06:50:43;;;;;;;6.32;3.10;;;22.00;99.90;;;;;;5062527;28;20660;-69
2022/06/28 06:53:10;;;;;;;4.00;3.47;;;22.10;99.90;;;;;;5058831;28;20060;-69
2022/06/28 06:55:36;;;;;;;3.67;3.33;;;22.00;99.90;;;;;;5056742;28;20025;-70
2022/06/28 06:58:02;;;;;;;3.75;3.17;;;21.80;99.90;;;;;;5057585;28;20020;-70
2022/06/28 07:00:28;;;;;;;3.42;3.08;;;21.90;99.90;;;;;;5050528;28;20341;-69
2022/06/28 07:02:53;;;;;;;4.47;2.88;;;22.00;99.90;;;;;;5044200;28;20252;-71
2022/06/28 07:05:19;;;;;;;3.40;3.10;;;22.10;99.90;;;;;;5052922;28;20032;-67
2022/06/28 07:07:45;;;;;;;2.70;2.50;;;22.00;99.90;;;;;;5055125;28;20110;-66
2022/06/28 07:10:11;;;;;;;5.25;2.70;;;22.00;99.90;;;;;;5052889;28;20053;-65
2022/06/28 07:12:36;;;;;;;2.97;2.67;;;22.00;99.90;;;;;;5051845;28;20053;-66
2022/06/28 07:15:03;;;;;;;5.05;2.70;;;22.00;99.90;;;;;;5057766;28;20036;-66
2022/06/28 07:17:28;;;;;;;6.88;2.67;;;22.10;99.90;;;;;;5052660;28;20545;-67
2022/06/28 07:19:54;;;;;;;12.82;3.15;;;22.20;99.90;;;;;;5049759;28;20044;-66
2022/06/28 07:22:19;;;;;;;4.65;2.90;;;22.20;99.90;;;;;;5054806;28;20355;-65
2022/06/28 07:24:45;;;;;;;2.60;2.40;;;22.40;99.90;;;;;;5057563;28;20024;-65
2022/06/28 07:27:11;;;;;;;3.58;2.20;;;22.50;99.90;;;;;;5049706;28;20140;-65
2022/06/28 07:29:36;;;;;;;5.20;2.60;;;22.50;99.90;;;;;;5044492;28;20028;-68
2022/06/28 07:32:02;;;;;;;3.92;2.10;;;22.60;99.90;;;;;;5052642;28;20503;-66
2022/06/28 07:34:28;;;;;;;3.47;2.38;;;22.70;99.90;;;;;;5051229;28;20032;-67
2022/06/28 07:36:53;;;;;;;3.38;2.35;;;22.70;99.90;;;;;;5052315;28;20056;-65
2022/06/28 07:39:19;;;;;;;3.50;2.10;;;22.70;99.90;;;;;;5044209;28;20380;-66
2022/06/28 07:41:44;;;;;;;4.28;1.92;;;22.70;99.90;;;;;;5052955;28;20422;-68
2022/06/28 07:44:10;;;;;;;4.93;1.92;;;22.80;99.90;;;;;;5051193;28;20682;-69
2022/06/28 07:46:36;;;;;;;3.70;1.88;;;22.80;99.90;;;;;;5052610;28;20035;-69
2022/06/28 07:49:02;;;;;;;4.75;1.83;;;22.80;99.90;;;;;;5052157;28;20632;-68
2022/06/28 07:54:12;;;;;;;3.83;2.20;;;22.90;99.90;;;;;;5050381;28;20078;-68
2022/06/28 07:56:38;;;;;;;4.93;2.30;;;23.00;99.90;;;;;;5050026;28;20385;-68
2022/06/28 07:59:04;;;;;;;2.90;1.88;;;23.00;99.90;;;;;;5048696;28;20527;-68
2022/06/28 08:01:29;;;;;;;2.15;1.73;;;23.20;99.90;;;;;;5057091;28;20041;-68
2022/06/28 08:03:55;;;;;;;2.78;1.80;;;23.30;99.90;;;;;;5047952;28;20395;-69
2022/06/28 08:06:21;;;;;;;3.08;1.20;;;23.50;99.90;;;;;;5058820;28;20106;-69
2022/06/28 08:08:47;;;;;;;1.77;1.30;;;23.60;99.90;;;;;;5055876;28;20416;-69
2022/06/28 08:11:12;;;;;;;7.50;1.60;;;23.70;99.90;;;;;;5045183;28;20142;-69
2022/06/28 08:13:38;;;;;;;2.45;1.05;;;23.90;99.90;;;;;;5049358;28;21095;-72
2022/06/28 08:16:05;;;;;;;2.53;1.00;;;24.10;99.90;;;;;;5053046;28;21216;-69
2022/06/28 08:18:30;;;;;;;3.65;1.20;;;24.20;99.90;;;;;;5052977;28;20029;-71
2022/06/28 08:20:56;;;;;;;2.95;1.13;;;24.40;99.90;;;;;;5051882;28;20025;-65
2022/06/28 08:23:22;;;;;;;3.25;1.10;;;24.50;99.90;;;;;;5050601;28;20047;-64
2022/06/28 08:25:47;;;;;;;3.22;1.33;;;24.60;99.90;;;;;;5053497;28;20544;-64
2022/06/28 08:28:14;;;;;;;3.80;1.00;;;24.60;99.90;;;;;;5051550;28;20024;-64
2022/06/28 08:30:41;;;;;;;2.50;0.73;;;24.80;99.90;;;;;;5048691;28;20017;-64
2022/06/28 08:33:07;;;;;;;5.57;0.90;;;24.80;99.90;;;;;;5050310;28;20067;-64
2022/06/28 08:35:34;;;;;;;4.35;1.25;;;24.80;99.40;;;;;;5051201;28;20039;-66
2022/06/28 08:38:06;;;;;;;2.20;0.82;;;24.90;99.90;;;;;;5055225;28;20029;-66
2022/06/28 08:40:32;;;;;;;;;;;25.10;99.90;;;;;;5053442;28;20036;-65
2022/06/28 08:42:59;;;;;;;2.97;1.65;;;25.20;99.50;;;;;;5054869;28;19928;-65
2022/06/28 08:45:25;;;;;;;2.20;0.93;;;25.30;99.80;;;;;;5050553;28;20047;-65
2022/06/28 08:47:54;;;;;;;2.83;1.40;;;25.30;99.90;;;;;;5050824;28;20059;-65
2022/06/28 08:50:33;;;;;;;4.45;1.17;;;25.40;99.90;;;;;;5049430;28;20121;-66
2022/06/28 08:53:02;;;;;;;3.20;1.17;;;25.40;99.90;;;;;;5048629;28;20190;-66
2022/06/28 08:55:30;;;;;;;4.13;1.35;;;25.40;99.90;;;;;;5047316;28;20032;-66
2022/06/28 08:57:58;;;;;;;3.10;1.70;;;25.50;99.90;;;;;;5056645;28;20033;-71
2022/06/28 09:00:24;;;;;;;5.22;1.27;;;25.50;99.90;;;;;;5047895;28;20115;-72
2022/06/28 09:02:52;;;;;;;4.50;1.55;;;25.50;99.90;;;;;;5046201;28;20056;-70
2022/06/28 09:05:20;;;;;;;5.13;1.60;;;25.50;99.90;;;;;;5048276;28;20112;-72
2022/06/28 09:07:46;;;;;;;2.83;1.30;;;25.50;99.90;;;;;;5047347;28;20507;-72
2022/06/28 09:10:12;;;;;;;4.78;1.60;;;25.50;99.90;;;;;;5046626;28;20033;-70
2022/06/28 09:12:38;;;;;;;4.30;2.33;;;25.60;99.90;;;;;;5055861;28;20040;-70
2022/06/28 09:15:04;;;;;;;6.60;2.38;;;25.80;99.90;;;;;;5053411;28;20029;-71
2022/06/28 09:17:33;;;;;;;4.03;2.25;;;25.80;99.90;;;;;;5052255;28;20040;-65
2022/06/28 09:20:05;;;;;;;5.22;2.13;;;26.00;99.90;;;;;;5051420;28;21231;-64
2022/06/28 09:22:43;;;;;;;4.00;2.08;;;26.10;99.90;;;;;;5053201;28;20512;-65
2022/06/28 09:25:24;;;;;;;2.92;2.10;;;26.20;99.90;;;;;;5049960;28;20032;-65
2022/06/28 09:27:54;;;;;;;4.22;1.80;;;26.40;99.90;;;;;;5052655;28;20086;-65
2022/06/28 09:30:21;;;;;;;3.60;1.63;;;26.40;99.90;;;;;;5047728;28;20031;-63
2022/06/28 09:32:46;;;;;;;3.35;1.92;;;26.50;99.90;;;;;;5050724;28;20117;-65
2022/06/28 09:35:12;;;;;;;2.25;1.70;;;26.40;99.90;;;;;;5044897;28;20111;-65
2022/06/28 09:40:28;;;;;;;4.55;1.80;;;26.30;99.90;;;;;;5049160;28;20029;-63
2022/06/28 09:43:11;;;;;;;2.42;2.13;;;26.30;99.80;;;;;;5051733;28;20564;-64
2022/06/28 09:45:39;;;;;;;3.65;2.13;;;26.30;99.90;;;;;;5059070;28;20037;-64
2022/06/28 09:48:06;;;;;;;2.75;1.58;;;26.30;99.90;;;;;;5051953;28;20086;-64
2022/06/28 09:50:34;;;;;;;3.10;2.10;;;26.50;99.90;;;;;;5051247;28;20025;-65
2022/06/28 09:53:00;;;;;;;4.78;2.05;;;26.60;99.90;;;;;;5052601;28;20040;-63
2022/06/28 09:55:29;;;;;;;4.68;1.73;;;26.70;99.50;;;;;;5044927;28;20052;-73
2022/06/28 09:57:55;;;;;;;3.33;2.08;;;26.70;99.00;;;;;;5052111;28;20032;-73
2022/06/28 10:00:24;;;;;;;2.65;1.63;;;26.80;99.10;;;;;;5049257;28;20036;-71
2022/06/28 10:02:54;;;;;;;3.67;1.50;;;26.80;98.90;;;;;;5043020;28;20052;-74
2022/06/28 10:05:20;;;;;;;3.47;1.75;;;26.90;98.40;;;;;;5047930;28;20028;-74
2022/06/28 10:07:46;;;;;;;3.72;1.80;;;27.00;98.00;;;;;;5054028;28;20052;-74
2022/06/28 10:10:13;;;;;;;3.42;1.70;;;27.00;98.40;;;;;;5056979;28;20021;-74
2022/06/28 10:15:33;;;;;;;3.40;1.83;;;27.10;98.20;;;;;;5052263;28;20047;-63
2022/06/28 10:18:10;;;;;;;3.53;1.83;;;27.20;97.50;;;;;;5053801;28;20039;-65
2022/06/28 10:20:38;;;;;;;3.50;1.67;;;27.40;98.50;;;;;;5049792;28;20051;-66
2022/06/28 10:23:25;;;;;;;5.78;1.75;;;27.50;96.60;;;;;;5046924;28;20509;-65
2022/06/28 10:26:09;;;;;;;4.15;1.35;;;27.50;95.50;;;;;;5054244;28;20073;-65
2022/06/28 10:28:38;;;;;;;7.97;1.73;;;27.60;94.40;;;;;;5051588;28;20032;-65
2022/06/28 10:31:24;;;;;;;3.38;1.60;;;27.60;94.70;;;;;;5051357;28;20462;-64
2022/06/28 10:33:57;;;;;;;3.70;1.38;;;27.70;95.00;;;;;;5055429;28;20029;-75
2022/06/28 10:36:31;;;;;;;2.85;1.75;;;27.80;94.10;;;;;;5053334;28;20021;-73
2022/06/28 10:39:08;;;;;;;3.20;1.48;;;27.80;93.70;;;;;;5051495;28;20063;-74
2022/06/28 10:41:57;;;;;;;2.17;1.70;;;27.90;95.10;;;;;;5053825;28;20040;-73
2022/06/28 10:44:28;;;;;;;6.10;1.60;;;27.90;93.10;;;;;;5058016;28;20791;-71
2022/06/28 10:47:06;;;;;;;4.78;1.70;;;27.90;92.90;;;;;;5056513;28;20043;-73
2022/06/28 10:49:52;;;;;;;3.35;1.60;;;27.90;93.00;;;;;;5052289;28;20059;-73
2022/06/28 10:52:22;;;;;;;2.53;1.65;;;27.90;94.50;;;;;;5053328;28;20050;-66
2022/06/28 10:54:57;;;;;;;4.95;1.90;;;28.10;93.40;;;;;;5049320;28;20043;-63
2022/06/28 10:57:26;;;;;;;3.08;2.05;;;28.20;92.60;;;;;;5051296;28;20017;-65
2022/06/28 10:59:57;;;;;;;3.90;2.03;;;28.30;93.60;;;;;;5051717;28;20541;-65
2022/06/28 11:02:23;;;;;;;3.00;1.70;;;28.30;90.90;;;;;;5054976;28;21170;-64
2022/06/28 11:05:16;;;;;;;2.72;1.50;;;28.40;93.30;;;;;;5057735;28;20032;-65
2022/06/28 11:07:56;;;;;;;4.38;1.60;;;28.40;91.00;;;;;;5051549;28;20037;-72
2022/06/28 11:10:22;;;;;;;3.60;1.30;;;28.50;90.70;;;;;;5055205;28;20050;-74
2022/06/28 11:12:47;;;;;;;2.85;1.73;;;28.50;91.00;;;;;;5052961;28;20181;-65
2022/06/28 11:15:36;;;;;;;2.97;1.50;;;28.60;91.80;;;;;;5052365;28;20035;-65
2022/06/28 11:18:02;;;;;;;2.03;1.60;;;28.60;91.30;;;;;;5051166;28;20036;-65
2022/06/28 11:20:30;;;;;;;4.43;1.83;;;28.60;92.50;;;;;;5049831;28;20039;-64
2022/06/28 11:22:56;;;;;;;3.13;1.90;;;28.70;93.10;;;;;;5046090;28;20045;-64
2022/06/28 11:25:24;;;;;;;5.00;2.17;;;28.80;93.60;;;;;;5054662;28;20073;-63
2022/06/28 11:27:55;;;;;;;3.90;1.83;;;28.80;93.40;;;;;;5055099;28;20103;-65
2022/06/28 11:30:23;;;;;;;4.43;2.03;;;28.80;92.90;;;;;;5054412;28;20055;-74
2022/06/28 11:32:53;;;;;;;3.95;1.83;;;28.80;92.70;;;;;;5048128;28;20037;-72
2022/06/28 11:35:23;;;;;;;4.20;1.70;;;29.00;94.20;;;;;;5051685;28;20044;-73
2022/06/28 11:37:51;;;;;;;9.93;1.95;;;29.00;92.40;;;;;;5048876;28;20039;-74
2022/06/28 11:40:19;;;;;;;3.97;1.98;;;29.00;93.20;;;;;;5046986;28;20052;-75
2022/06/28 11:42:46;;;;;;;2.25;1.98;;;29.10;93.20;;;;;;5050459;28;20154;-72
2022/06/28 11:45:14;;;;;;;10.43;2.70;;;29.10;94.50;;;;;;5045930;28;20025;-75
2022/06/28 11:47:44;;;;;;;2.85;1.90;;;29.20;93.70;;;;;;5048832;28;20035;-72
2022/06/28 11:50:18;;;;;;;2.70;1.90;;;29.20;93.60;;;;;;5054375;28;20035;-71
2022/06/28 11:52:54;;;;;;;2.53;1.77;;;29.20;93.40;;;;;;5053141;28;20124;-75
2022/06/28 11:55:38;;;;;;;2.58;1.52;;;29.20;94.20;;;;;;5044637;28;20021;-72
2022/06/28 11:58:20;;;;;;;3.08;1.35;;;29.30;94.50;;;;;;5054421;28;20020;-75
2022/06/28 12:01:11;;;;;;;3.30;1.40;;;29.50;93.00;;;;;;5048265;28;20060;-73
2022/06/28 12:03:43;;;;;;;4.50;1.65;;;29.60;92.70;;;;;;5051138;28;20028;-72
2022/06/28 12:06:22;;;;;;;2.97;1.80;;;29.60;92.80;;;;;;5041452;28;20094;-71
2022/06/28 12:09:05;;;;;;;4.18;1.80;;;29.70;93.70;;;;;;5046586;28;20041;-73
2022/06/28 12:11:44;;;;;;;1.77;1.27;;;29.80;93.60;;;;;;5052144;28;20025;-74
2022/06/28 12:14:15;;;;;;;2.08;1.38;;;29.90;92.90;;;;;;5053241;28;20039;-79
2022/06/28 12:16:46;;;;;;;4.43;1.77;;;29.80;92.10;;;;;;5044297;28;20548;-75
2022/06/28 12:19:16;;;;;;;2.90;1.50;;;29.90;91.20;;;;;;5048507;28;20036;-74
2022/06/28 12:22:08;;;;;;;2.88;1.52;;;30.10;91.20;;;;;;5042840;28;20052;-75
2022/06/28 12:24:54;;;;;;;1.92;1.60;;;30.10;90.70;;;;;;5050058;28;20484;-74
2022/06/28 12:27:34;;;;;;;3.83;1.85;;;30.10;90.80;;;;;;5048860;28;23175;-71
2022/06/28 12:30:00;;;;;;;2.33;1.70;;;30.20;90.90;;;;;;5043017;28;20130;-64
2022/06/28 12:32:27;;;;;;;3.65;1.60;;;30.30;90.50;;;;;;5043275;28;20032;-65
2022/06/28 12:34:58;;;;;;;2.67;1.45;;;30.40;91.40;;;;;;5050514;28;20032;-65
2022/06/28 12:37:25;;;;;;;2.83;1.70;;;30.40;90.40;;;;;;5050312;28;20295;-63
2022/06/28 12:39:51;;;;;;;2.90;1.70;;;30.40;86.80;;;;;;5053742;28;20051;-64
2022/06/28 12:42:17;;;;;;;5.07;2.00;;;30.40;90.70;;;;;;5044864;28;20044;-62
2022/06/28 12:44:42;;;;;;;4.35;2.03;;;30.40;89.30;;;;;;5049688;28;20126;-64
2022/06/28 12:47:09;;;;;;;14.13;4.70;;;30.40;90.40;;;;;;5050829;28;20028;-79
2022/06/28 12:49:35;;;;;;;10.43;3.95;;;30.40;87.50;;;;;;5043862;28;20997;-74
2022/06/28 12:52:00;;;;;;;5.63;2.80;;;30.30;88.30;;;;;;5056264;28;20032;-84
2022/06/28 12:54:26;;;;;;;5.45;2.38;;;30.20;89.90;;;;;;5050461;28;20051;-79
2022/06/28 12:56:52;;;;;;;4.00;2.40;;;30.10;87.70;;;;;;5059849;28;20044;-76
2022/06/28 12:59:17;;;;;;;5.47;2.58;;;30.00;85.90;;;;;;5053436;28;20029;-79
2022/06/28 13:01:43;;;;;;;4.65;2.30;;;29.90;87.10;;;;;;5030605;28;20047;-80
2022/06/28 13:04:09;;;;;;;6.13;2.50;;;30.00;87.60;;;;;;5048668;28;20032;-75
2022/06/28 13:06:35;;;;;;;7.55;2.38;;;29.90;87.50;;;;;;5055473;28;20381;-75
2022/06/28 13:09:01;;;;;;;5.30;1.98;;;29.90;86.20;;;;;;5047991;28;20025;-73